sensor_id;sensor_type;location;lat;lon;timestamp;temperature;humidity
70366;DHT22;57787;48.216;12.396;2024-03-29T00:01:49;0.80;89.70
70366;DHT22;57787;48.216;12.396;2024-03-29T00:04:15;0.80;89.70
70366;DHT22;57787;48.216;12.396;2024-03-29T00:06:41;0.80;89.80
70366;DHT22;57787;48.216;12.396;2024-03-29T00:09:07;0.90;90.30
70366;DHT22;57787;48.216;12.396;2024-03-29T00:11:33;1.00;90.40
70366;DHT22;57787;48.216;12.396;2024-03-29T00:13:59;1.00;90.40
70366;DHT22;57787;48.216;12.396;2024-03-29T00:16:26;1.10;90.30
70366;DHT22;57787;48.216;12.396;2024-03-29T00:18:52;1.10;90.20
70366;DHT22;57787;48.216;12.396;2024-03-29T00:21:19;1.10;89.90
70366;DHT22;57787;48.216;12.396;2024-03-29T00:23:45;1.00;89.80
70366;DHT22;57787;48.216;12.396;2024-03-29T00:26:11;1.00;89.90
70366;DHT22;57787;48.216;12.396;2024-03-29T00:28:37;1.00;89.60
70366;DHT22;57787;48.216;12.396;2024-03-29T00:31:04;1.00;89.80
70366;DHT22;57787;48.216;12.396;2024-03-29T00:33:30;1.00;89.90
70366;DHT22;57787;48.216;12.396;2024-03-29T00:35:56;1.00;89.80
70366;DHT22;57787;48.216;12.396;2024-03-29T00:38:24;1.00;89.90
70366;DHT22;57787;48.216;12.396;2024-03-29T00:40:50;1.00;89.90
70366;DHT22;57787;48.216;12.396;2024-03-29T00:43:16;1.00;89.70
70366;DHT22;57787;48.216;12.396;2024-03-29T00:45:42;0.90;89.80
70366;DHT22;57787;48.216;12.396;2024-03-29T00:48:08;1.00;90.10
70366;DHT22;57787;48.216;12.396;2024-03-29T00:50:34;1.00;90.30
70366;DHT22;57787;48.216;12.396;2024-03-29T00:53:00;1.00;90.60
70366;DHT22;57787;48.216;12.396;2024-03-29T00:55:27;1.00;90.40
70366;DHT22;57787;48.216;12.396;2024-03-29T00:57:53;1.00;90.20
70366;DHT22;57787;48.216;12.396;2024-03-29T01:00:21;1.00;90.10
70366;DHT22;57787;48.216;12.396;2024-03-29T01:02:47;0.90;89.90
70366;DHT22;57787;48.216;12.396;2024-03-29T01:05:12;0.90;90.00
70366;DHT22;57787;48.216;12.396;2024-03-29T01:07:41;0.90;90.00
70366;DHT22;57787;48.216;12.396;2024-03-29T01:10:08;0.80;89.90
70366;DHT22;57787;48.216;12.396;2024-03-29T01:12:37;0.80;89.80
70366;DHT22;57787;48.216;12.396;2024-03-29T01:15:05;0.70;89.60
70366;DHT22;57787;48.216;12.396;2024-03-29T01:17:31;0.60;89.40
70366;DHT22;57787;48.216;12.396;2024-03-29T01:19:59;0.50;89.40
70366;DHT22;57787;48.216;12.396;2024-03-29T01:22:25;0.40;89.40
70366;DHT22;57787;48.216;12.396;2024-03-29T01:24:51;0.40;89.50
70366;DHT22;57787;48.216;12.396;2024-03-29T01:27:17;0.30;89.60
70366;DHT22;57787;48.216;12.396;2024-03-29T01:29:43;0.30;89.70
70366;DHT22;57787;48.216;12.396;2024-03-29T01:32:08;0.30;89.80
70366;DHT22;57787;48.216;12.396;2024-03-29T01:34:34;0.30;90.20
70366;DHT22;57787;48.216;12.396;2024-03-29T01:37:00;0.30;90.10
70366;DHT22;57787;48.216;12.396;2024-03-29T01:39:26;0.20;90.20
70366;DHT22;57787;48.216;12.396;2024-03-29T01:41:56;0.20;90.30
70366;DHT22;57787;48.216;12.396;2024-03-29T01:44:25;0.20;90.20
70366;DHT22;57787;48.216;12.396;2024-03-29T01:46:51;0.10;90.10
70366;DHT22;57787;48.216;12.396;2024-03-29T01:49:17;0.00;89.80
70366;DHT22;57787;48.216;12.396;2024-03-29T01:51:43;0.00;89.90
70366;DHT22;57787;48.216;12.396;2024-03-29T01:54:09;0.00;89.90
70366;DHT22;57787;48.216;12.396;2024-03-29T01:56:36;0.00;89.90
70366;DHT22;57787;48.216;12.396;2024-03-29T01:59:03;0.00;89.90
70366;DHT22;57787;48.216;12.396;2024-03-29T02:01:29;0.00;89.90
70366;DHT22;57787;48.216;12.396;2024-03-29T02:03:55;0.00;90.00
70366;DHT22;57787;48.216;12.396;2024-03-29T02:06:22;-0.10;90.30
70366;DHT22;57787;48.216;12.396;2024-03-29T02:08:51;-0.10;90.60
70366;DHT22;57787;48.216;12.396;2024-03-29T02:11:19;-0.10;90.60
70366;DHT22;57787;48.216;12.396;2024-03-29T02:13:49;-0.10;90.40
70366;DHT22;57787;48.216;12.396;2024-03-29T02:16:16;-0.20;90.30
70366;DHT22;57787;48.216;12.396;2024-03-29T02:18:41;-0.20;90.30
70366;DHT22;57787;48.216;12.396;2024-03-29T02:21:07;-0.10;90.30
70366;DHT22;57787;48.216;12.396;2024-03-29T02:23:35;-0.10;90.30
70366;DHT22;57787;48.216;12.396;2024-03-29T02:26:02;-0.20;90.40
70366;DHT22;57787;48.216;12.396;2024-03-29T02:28:30;-0.20;90.20
70366;DHT22;57787;48.216;12.396;2024-03-29T02:30:55;-0.20;90.30
70366;DHT22;57787;48.216;12.396;2024-03-29T02:33:21;-0.20;90.30
70366;DHT22;57787;48.216;12.396;2024-03-29T02:35:47;-0.20;90.30
70366;DHT22;57787;48.216;12.396;2024-03-29T02:38:13;-0.20;90.40
70366;DHT22;57787;48.216;12.396;2024-03-29T02:40:39;-0.30;90.40
70366;DHT22;57787;48.216;12.396;2024-03-29T02:43:04;-0.20;90.40
70366;DHT22;57787;48.216;12.396;2024-03-29T02:45:30;-0.20;90.40
70366;DHT22;57787;48.216;12.396;2024-03-29T02:47:56;-0.10;90.70
70366;DHT22;57787;48.216;12.396;2024-03-29T02:50:22;-0.10;90.60
70366;DHT22;57787;48.216;12.396;2024-03-29T02:52:48;-0.10;90.60
70366;DHT22;57787;48.216;12.396;2024-03-29T02:55:13;-0.10;90.50
70366;DHT22;57787;48.216;12.396;2024-03-29T02:57:39;-0.20;90.50
70366;DHT22;57787;48.216;12.396;2024-03-29T03:00:05;-0.20;90.60
70366;DHT22;57787;48.216;12.396;2024-03-29T03:02:32;-0.20;90.40
70366;DHT22;57787;48.216;12.396;2024-03-29T03:04:58;-0.20;90.50
70366;DHT22;57787;48.216;12.396;2024-03-29T03:07:25;-0.30;90.40
70366;DHT22;57787;48.216;12.396;2024-03-29T03:10:10;-0.30;90.50
70366;DHT22;57787;48.216;12.396;2024-03-29T03:12:54;-0.20;90.60
70366;DHT22;57787;48.216;12.396;2024-03-29T03:15:20;-0.20;90.70
70366;DHT22;57787;48.216;12.396;2024-03-29T03:17:46;-0.30;90.50
70366;DHT22;57787;48.216;12.396;2024-03-29T03:20:12;-0.30;90.60
70366;DHT22;57787;48.216;12.396;2024-03-29T03:22:39;-0.30;90.60
70366;DHT22;57787;48.216;12.396;2024-03-29T03:25:05;-0.30;90.60
70366;DHT22;57787;48.216;12.396;2024-03-29T03:27:30;-0.30;90.50
70366;DHT22;57787;48.216;12.396;2024-03-29T03:29:56;-0.30;90.60
70366;DHT22;57787;48.216;12.396;2024-03-29T03:32:22;-0.30;90.60
70366;DHT22;57787;48.216;12.396;2024-03-29T03:34:48;-0.40;90.60
70366;DHT22;57787;48.216;12.396;2024-03-29T03:37:14;-0.40;90.40
70366;DHT22;57787;48.216;12.396;2024-03-29T03:39:40;-0.50;90.40
70366;DHT22;57787;48.216;12.396;2024-03-29T03:42:06;-0.50;90.50
70366;DHT22;57787;48.216;12.396;2024-03-29T03:44:32;-0.50;90.50
70366;DHT22;57787;48.216;12.396;2024-03-29T03:46:58;-0.60;90.50
70366;DHT22;57787;48.216;12.396;2024-03-29T03:49:23;-0.60;90.50
70366;DHT22;57787;48.216;12.396;2024-03-29T03:51:49;-0.60;90.50
70366;DHT22;57787;48.216;12.396;2024-03-29T03:54:15;-0.70;90.50
70366;DHT22;57787;48.216;12.396;2024-03-29T03:56:41;-0.60;90.50
70366;DHT22;57787;48.216;12.396;2024-03-29T03:59:07;-0.60;90.50
70366;DHT22;57787;48.216;12.396;2024-03-29T04:01:34;-0.70;90.50
70366;DHT22;57787;48.216;12.396;2024-03-29T04:04:00;-0.60;90.50
70366;DHT22;57787;48.216;12.396;2024-03-29T04:06:25;-0.60;90.70
70366;DHT22;57787;48.216;12.396;2024-03-29T04:08:51;-0.60;90.90
70366;DHT22;57787;48.216;12.396;2024-03-29T04:11:18;-0.60;90.80
70366;DHT22;57787;48.216;12.396;2024-03-29T04:13:45;-0.60;90.80
70366;DHT22;57787;48.216;12.396;2024-03-29T04:16:10;-0.60;91.10
70366;DHT22;57787;48.216;12.396;2024-03-29T04:18:36;-0.60;91.00
70366;DHT22;57787;48.216;12.396;2024-03-29T04:21:02;-0.60;90.90
70366;DHT22;57787;48.216;12.396;2024-03-29T04:23:29;-0.60;90.80
70366;DHT22;57787;48.216;12.396;2024-03-29T04:25:55;-0.60;90.80
70366;DHT22;57787;48.216;12.396;2024-03-29T04:28:21;-0.60;90.70
70366;DHT22;57787;48.216;12.396;2024-03-29T04:30:51;-0.60;90.70
70366;DHT22;57787;48.216;12.396;2024-03-29T04:33:18;-0.60;90.80
70366;DHT22;57787;48.216;12.396;2024-03-29T04:35:51;-0.50;90.90
70366;DHT22;57787;48.216;12.396;2024-03-29T04:38:18;-0.40;91.60
70366;DHT22;57787;48.216;12.396;2024-03-29T04:40:44;-0.30;91.60
70366;DHT22;57787;48.216;12.396;2024-03-29T04:43:10;-0.10;92.00
70366;DHT22;57787;48.216;12.396;2024-03-29T04:45:36;0.00;91.80
70366;DHT22;57787;48.216;12.396;2024-03-29T04:48:01;0.00;91.70
70366;DHT22;57787;48.216;12.396;2024-03-29T04:50:28;0.10;91.70
70366;DHT22;57787;48.216;12.396;2024-03-29T04:52:54;0.10;91.70
70366;DHT22;57787;48.216;12.396;2024-03-29T04:55:20;0.20;91.60
70366;DHT22;57787;48.216;12.396;2024-03-29T04:57:45;0.20;91.40
70366;DHT22;57787;48.216;12.396;2024-03-29T05:00:12;0.30;91.70
70366;DHT22;57787;48.216;12.396;2024-03-29T05:02:37;0.30;91.60
70366;DHT22;57787;48.216;12.396;2024-03-29T05:05:04;0.50;91.70
70366;DHT22;57787;48.216;12.396;2024-03-29T05:07:31;0.50;91.60
70366;DHT22;57787;48.216;12.396;2024-03-29T05:09:57;0.60;91.80
70366;DHT22;57787;48.216;12.396;2024-03-29T05:12:23;0.80;92.10
70366;DHT22;57787;48.216;12.396;2024-03-29T05:14:48;1.00;92.10
70366;DHT22;57787;48.216;12.396;2024-03-29T05:17:15;1.20;91.80
70366;DHT22;57787;48.216;12.396;2024-03-29T05:19:41;1.30;91.30
70366;DHT22;57787;48.216;12.396;2024-03-29T05:22:06;1.40;91.30
70366;DHT22;57787;48.216;12.396;2024-03-29T05:24:32;1.50;90.90
70366;DHT22;57787;48.216;12.396;2024-03-29T05:26:58;1.60;90.80
70366;DHT22;57787;48.216;12.396;2024-03-29T05:29:24;1.80;90.40
70366;DHT22;57787;48.216;12.396;2024-03-29T05:31:52;1.80;90.30
70366;DHT22;57787;48.216;12.396;2024-03-29T05:34:18;1.90;90.00
70366;DHT22;57787;48.216;12.396;2024-03-29T05:36:45;1.80;89.30
70366;DHT22;57787;48.216;12.396;2024-03-29T05:39:11;1.90;89.70
70366;DHT22;57787;48.216;12.396;2024-03-29T05:41:38;1.90;89.50
70366;DHT22;57787;48.216;12.396;2024-03-29T05:44:03;2.00;89.90
70366;DHT22;57787;48.216;12.396;2024-03-29T05:46:29;2.10;89.50
70366;DHT22;57787;48.216;12.396;2024-03-29T05:48:55;2.20;89.10
70366;DHT22;57787;48.216;12.396;2024-03-29T05:51:21;2.40;89.10
70366;DHT22;57787;48.216;12.396;2024-03-29T05:53:48;2.50;89.10
70366;DHT22;57787;48.216;12.396;2024-03-29T05:56:14;2.80;88.90
70366;DHT22;57787;48.216;12.396;2024-03-29T05:58:41;3.00;87.80
70366;DHT22;57787;48.216;12.396;2024-03-29T06:01:07;3.20;86.70
70366;DHT22;57787;48.216;12.396;2024-03-29T06:03:33;3.30;87.00
70366;DHT22;57787;48.216;12.396;2024-03-29T06:05:59;3.60;86.60
70366;DHT22;57787;48.216;12.396;2024-03-29T06:08:24;3.70;86.10
70366;DHT22;57787;48.216;12.396;2024-03-29T06:10:52;3.80;85.70
70366;DHT22;57787;48.216;12.396;2024-03-29T06:13:18;4.00;84.50
70366;DHT22;57787;48.216;12.396;2024-03-29T06:16:13;4.10;84.60
70366;DHT22;57787;48.216;12.396;2024-03-29T06:18:57;4.30;83.90
70366;DHT22;57787;48.216;12.396;2024-03-29T06:21:23;4.50;82.80
70366;DHT22;57787;48.216;12.396;2024-03-29T06:23:50;4.60;82.00
70366;DHT22;57787;48.216;12.396;2024-03-29T06:26:16;4.80;81.50
70366;DHT22;57787;48.216;12.396;2024-03-29T06:28:41;4.90;80.90
70366;DHT22;57787;48.216;12.396;2024-03-29T06:31:07;5.00;80.80
70366;DHT22;57787;48.216;12.396;2024-03-29T06:33:34;5.20;80.70
70366;DHT22;57787;48.216;12.396;2024-03-29T06:36:00;5.30;80.30
70366;DHT22;57787;48.216;12.396;2024-03-29T06:38:26;5.40;80.40
70366;DHT22;57787;48.216;12.396;2024-03-29T06:40:53;5.60;79.70
70366;DHT22;57787;48.216;12.396;2024-03-29T06:43:19;5.80;79.70
70366;DHT22;57787;48.216;12.396;2024-03-29T06:45:44;6.00;78.40
70366;DHT22;57787;48.216;12.396;2024-03-29T06:48:10;6.30;77.90
70366;DHT22;57787;48.216;12.396;2024-03-29T06:50:39;6.40;76.90
70366;DHT22;57787;48.216;12.396;2024-03-29T06:53:06;6.60;76.10
70366;DHT22;57787;48.216;12.396;2024-03-29T06:55:33;6.80;76.20
70366;DHT22;57787;48.216;12.396;2024-03-29T06:57:59;6.90;75.60
70366;DHT22;57787;48.216;12.396;2024-03-29T07:00:25;7.10;76.00
70366;DHT22;57787;48.216;12.396;2024-03-29T07:02:52;7.30;75.00
70366;DHT22;57787;48.216;12.396;2024-03-29T07:05:19;7.20;73.60
70366;DHT22;57787;48.216;12.396;2024-03-29T07:07:45;7.20;74.10
70366;DHT22;57787;48.216;12.396;2024-03-29T07:10:12;7.30;74.10
70366;DHT22;57787;48.216;12.396;2024-03-29T07:12:38;7.30;73.60
70366;DHT22;57787;48.216;12.396;2024-03-29T07:15:04;7.40;73.70
70366;DHT22;57787;48.216;12.396;2024-03-29T07:17:30;7.70;72.70
70366;DHT22;57787;48.216;12.396;2024-03-29T07:19:56;8.00;73.20
70366;DHT22;57787;48.216;12.396;2024-03-29T07:22:23;8.20;72.40
70366;DHT22;57787;48.216;12.396;2024-03-29T07:24:49;8.40;70.50
70366;DHT22;57787;48.216;12.396;2024-03-29T07:27:15;8.60;69.50
70366;DHT22;57787;48.216;12.396;2024-03-29T07:29:44;8.80;70.20
70366;DHT22;57787;48.216;12.396;2024-03-29T07:32:11;9.00;69.20
70366;DHT22;57787;48.216;12.396;2024-03-29T07:34:37;9.20;68.50
70366;DHT22;57787;48.216;12.396;2024-03-29T07:37:05;9.30;68.20
70366;DHT22;57787;48.216;12.396;2024-03-29T07:39:31;9.40;67.50
70366;DHT22;57787;48.216;12.396;2024-03-29T07:41:57;9.80;67.00
70366;DHT22;57787;48.216;12.396;2024-03-29T07:44:23;10.00;67.40
70366;DHT22;57787;48.216;12.396;2024-03-29T07:46:48;10.30;66.30
70366;DHT22;57787;48.216;12.396;2024-03-29T07:49:14;10.50;64.90
70366;DHT22;57787;48.216;12.396;2024-03-29T07:51:40;10.70;65.40
70366;DHT22;57787;48.216;12.396;2024-03-29T07:54:06;10.90;65.30
70366;DHT22;57787;48.216;12.396;2024-03-29T07:56:33;10.90;63.30
70366;DHT22;57787;48.216;12.396;2024-03-29T07:59:00;11.00;64.90
70366;DHT22;57787;48.216;12.396;2024-03-29T08:01:26;11.20;64.70
70366;DHT22;57787;48.216;12.396;2024-03-29T08:03:52;11.30;63.90
70366;DHT22;57787;48.216;12.396;2024-03-29T08:06:20;11.30;62.80
70366;DHT22;57787;48.216;12.396;2024-03-29T08:08:49;11.50;63.50
70366;DHT22;57787;48.216;12.396;2024-03-29T08:11:16;11.50;61.30
70366;DHT22;57787;48.216;12.396;2024-03-29T08:13:42;11.70;61.90
70366;DHT22;57787;48.216;12.396;2024-03-29T08:16:07;11.90;60.20
70366;DHT22;57787;48.216;12.396;2024-03-29T08:18:34;12.10;60.40
70366;DHT22;57787;48.216;12.396;2024-03-29T08:20:59;12.20;61.10
70366;DHT22;57787;48.216;12.396;2024-03-29T08:23:26;12.30;60.30
70366;DHT22;57787;48.216;12.396;2024-03-29T08:25:52;12.20;60.80
70366;DHT22;57787;48.216;12.396;2024-03-29T08:28:18;12.40;60.60
70366;DHT22;57787;48.216;12.396;2024-03-29T08:30:45;12.70;60.40
70366;DHT22;57787;48.216;12.396;2024-03-29T08:33:11;12.90;58.90
70366;DHT22;57787;48.216;12.396;2024-03-29T08:35:37;13.00;57.60
70366;DHT22;57787;48.216;12.396;2024-03-29T08:38:04;13.30;57.50
70366;DHT22;57787;48.216;12.396;2024-03-29T08:40:30;13.50;57.30
70366;DHT22;57787;48.216;12.396;2024-03-29T08:42:58;13.80;57.70
70366;DHT22;57787;48.216;12.396;2024-03-29T08:45:23;13.80;55.90
70366;DHT22;57787;48.216;12.396;2024-03-29T08:47:49;13.80;54.10
70366;DHT22;57787;48.216;12.396;2024-03-29T08:50:15;13.90;53.90
70366;DHT22;57787;48.216;12.396;2024-03-29T08:52:41;14.10;54.50
70366;DHT22;57787;48.216;12.396;2024-03-29T08:55:07;14.30;54.70
70366;DHT22;57787;48.216;12.396;2024-03-29T08:57:33;14.70;53.70
70366;DHT22;57787;48.216;12.396;2024-03-29T08:59:59;14.80;53.50
70366;DHT22;57787;48.216;12.396;2024-03-29T09:02:25;14.90;52.60
70366;DHT22;57787;48.216;12.396;2024-03-29T09:04:51;15.30;53.50
70366;DHT22;57787;48.216;12.396;2024-03-29T09:07:16;15.70;50.70
70366;DHT22;57787;48.216;12.396;2024-03-29T09:09:42;16.00;50.80
70366;DHT22;57787;48.216;12.396;2024-03-29T09:12:08;16.00;50.30
70366;DHT22;57787;48.216;12.396;2024-03-29T09:14:34;15.80;50.20
70366;DHT22;57787;48.216;12.396;2024-03-29T09:17:00;15.90;50.90
70366;DHT22;57787;48.216;12.396;2024-03-29T09:19:28;16.00;50.30
70366;DHT22;57787;48.216;12.396;2024-03-29T09:21:55;16.30;51.00
70366;DHT22;57787;48.216;12.396;2024-03-29T09:24:21;16.50;49.60
70366;DHT22;57787;48.216;12.396;2024-03-29T09:26:51;16.70;48.80
70366;DHT22;57787;48.216;12.396;2024-03-29T09:29:17;16.90;48.60
70366;DHT22;57787;48.216;12.396;2024-03-29T09:31:45;17.40;49.90
70366;DHT22;57787;48.216;12.396;2024-03-29T09:34:12;17.80;48.80
70366;DHT22;57787;48.216;12.396;2024-03-29T09:36:37;18.20;47.40
70366;DHT22;57787;48.216;12.396;2024-03-29T09:39:03;18.20;46.40
70366;DHT22;57787;48.216;12.396;2024-03-29T09:41:31;18.30;46.50
70366;DHT22;57787;48.216;12.396;2024-03-29T09:43:57;18.30;46.30
70366;DHT22;57787;48.216;12.396;2024-03-29T09:46:25;18.60;48.00
70366;DHT22;57787;48.216;12.396;2024-03-29T09:48:52;18.80;45.70
70366;DHT22;57787;48.216;12.396;2024-03-29T09:51:19;18.80;45.30
70366;DHT22;57787;48.216;12.396;2024-03-29T09:53:45;18.90;45.00
70366;DHT22;57787;48.216;12.396;2024-03-29T09:56:11;18.90;45.10
70366;DHT22;57787;48.216;12.396;2024-03-29T09:58:37;18.90;45.00
70366;DHT22;57787;48.216;12.396;2024-03-29T10:01:04;19.10;46.70
70366;DHT22;57787;48.216;12.396;2024-03-29T10:03:30;19.40;46.80
70366;DHT22;57787;48.216;12.396;2024-03-29T10:05:56;19.60;46.20
70366;DHT22;57787;48.216;12.396;2024-03-29T10:08:27;19.80;44.60
70366;DHT22;57787;48.216;12.396;2024-03-29T10:10:56;19.90;44.50
70366;DHT22;57787;48.216;12.396;2024-03-29T10:13:23;20.10;42.70
70366;DHT22;57787;48.216;12.396;2024-03-29T10:15:49;20.00;44.80
70366;DHT22;57787;48.216;12.396;2024-03-29T10:18:16;19.90;42.30
70366;DHT22;57787;48.216;12.396;2024-03-29T10:20:44;19.90;43.50
70366;DHT22;57787;48.216;12.396;2024-03-29T10:23:10;19.90;42.60
70366;DHT22;57787;48.216;12.396;2024-03-29T10:25:36;19.80;42.30
70366;DHT22;57787;48.216;12.396;2024-03-29T10:28:02;19.90;46.10
70366;DHT22;57787;48.216;12.396;2024-03-29T10:30:28;20.20;43.90
70366;DHT22;57787;48.216;12.396;2024-03-29T10:32:57;20.40;43.20
70366;DHT22;57787;48.216;12.396;2024-03-29T10:35:26;20.60;43.60
70366;DHT22;57787;48.216;12.396;2024-03-29T10:37:54;21.10;42.20
70366;DHT22;57787;48.216;12.396;2024-03-29T10:40:20;21.50;40.80
70366;DHT22;57787;48.216;12.396;2024-03-29T10:42:47;21.60;41.40
70366;DHT22;57787;48.216;12.396;2024-03-29T10:45:15;21.80;40.40
70366;DHT22;57787;48.216;12.396;2024-03-29T10:47:43;22.10;39.90
70366;DHT22;57787;48.216;12.396;2024-03-29T10:50:12;22.20;38.90
70366;DHT22;57787;48.216;12.396;2024-03-29T10:52:41;22.00;38.90
70366;DHT22;57787;48.216;12.396;2024-03-29T10:55:11;22.10;38.20
70366;DHT22;57787;48.216;12.396;2024-03-29T10:57:41;22.10;38.70
70366;DHT22;57787;48.216;12.396;2024-03-29T11:00:16;22.20;38.70
70366;DHT22;57787;48.216;12.396;2024-03-29T11:05:30;22.30;37.10
70366;DHT22;57787;48.216;12.396;2024-03-29T11:07:57;22.60;37.30
70366;DHT22;57787;48.216;12.396;2024-03-29T11:10:34;23.00;36.90
70366;DHT22;57787;48.216;12.396;2024-03-29T11:15:46;23.30;36.30
70366;DHT22;57787;48.216;12.396;2024-03-29T11:18:13;23.60;36.30
70366;DHT22;57787;48.216;12.396;2024-03-29T11:20:39;23.80;34.40
70366;DHT22;57787;48.216;12.396;2024-03-29T11:23:12;23.60;33.20
70366;DHT22;57787;48.216;12.396;2024-03-29T11:25:39;23.50;34.60
70366;DHT22;57787;48.216;12.396;2024-03-29T11:28:06;23.50;35.00
70366;DHT22;57787;48.216;12.396;2024-03-29T11:30:40;23.70;33.40
70366;DHT22;57787;48.216;12.396;2024-03-29T11:33:07;23.80;35.50
70366;DHT22;57787;48.216;12.396;2024-03-29T11:35:32;24.20;34.70
70366;DHT22;57787;48.216;12.396;2024-03-29T11:37:58;24.50;33.00
70366;DHT22;57787;48.216;12.396;2024-03-29T11:40:29;24.70;33.70
70366;DHT22;57787;48.216;12.396;2024-03-29T11:42:55;24.80;31.90
70366;DHT22;57787;48.216;12.396;2024-03-29T11:45:21;24.90;32.60
70366;DHT22;57787;48.216;12.396;2024-03-29T11:47:48;24.70;32.20
70366;DHT22;57787;48.216;12.396;2024-03-29T11:50:14;24.50;29.60
70366;DHT22;57787;48.216;12.396;2024-03-29T11:52:40;24.20;30.70
70366;DHT22;57787;48.216;12.396;2024-03-29T11:55:08;24.00;32.70
70366;DHT22;57787;48.216;12.396;2024-03-29T11:57:33;24.00;31.90
70366;DHT22;57787;48.216;12.396;2024-03-29T12:00:00;24.20;32.80
70366;DHT22;57787;48.216;12.396;2024-03-29T12:02:26;24.70;32.80
70366;DHT22;57787;48.216;12.396;2024-03-29T12:04:51;24.90;32.40
70366;DHT22;57787;48.216;12.396;2024-03-29T12:07:17;25.30;30.90
70366;DHT22;57787;48.216;12.396;2024-03-29T12:09:43;25.70;31.50
70366;DHT22;57787;48.216;12.396;2024-03-29T12:12:10;25.30;31.10
70366;DHT22;57787;48.216;12.396;2024-03-29T12:14:36;25.30;31.50
70366;DHT22;57787;48.216;12.396;2024-03-29T12:17:09;25.70;32.40
70366;DHT22;57787;48.216;12.396;2024-03-29T12:19:39;26.00;32.70
70366;DHT22;57787;48.216;12.396;2024-03-29T12:22:08;26.20;29.90
70366;DHT22;57787;48.216;12.396;2024-03-29T12:24:35;26.30;31.50
70366;DHT22;57787;48.216;12.396;2024-03-29T12:27:01;26.30;30.40
70366;DHT22;57787;48.216;12.396;2024-03-29T12:29:27;26.50;32.00
70366;DHT22;57787;48.216;12.396;2024-03-29T12:31:59;26.30;31.00
70366;DHT22;57787;48.216;12.396;2024-03-29T12:34:27;26.40;30.90
70366;DHT22;57787;48.216;12.396;2024-03-29T12:36:52;26.50;30.50
70366;DHT22;57787;48.216;12.396;2024-03-29T12:39:18;26.20;30.60
70366;DHT22;57787;48.216;12.396;2024-03-29T12:41:47;26.00;31.30
70366;DHT22;57787;48.216;12.396;2024-03-29T12:44:13;25.90;30.30
70366;DHT22;57787;48.216;12.396;2024-03-29T12:46:40;25.80;31.10
70366;DHT22;57787;48.216;12.396;2024-03-29T12:49:06;25.60;29.90
70366;DHT22;57787;48.216;12.396;2024-03-29T12:51:32;25.40;30.10
70366;DHT22;57787;48.216;12.396;2024-03-29T12:54:01;25.30;30.30
70366;DHT22;57787;48.216;12.396;2024-03-29T12:56:32;25.50;31.40
70366;DHT22;57787;48.216;12.396;2024-03-29T12:58:58;25.40;30.90
70366;DHT22;57787;48.216;12.396;2024-03-29T13:01:24;25.50;30.70
70366;DHT22;57787;48.216;12.396;2024-03-29T13:03:49;25.30;29.30
70366;DHT22;57787;48.216;12.396;2024-03-29T13:06:16;25.00;30.30
70366;DHT22;57787;48.216;12.396;2024-03-29T13:08:42;24.90;30.60
70366;DHT22;57787;48.216;12.396;2024-03-29T13:11:08;24.90;33.10
70366;DHT22;57787;48.216;12.396;2024-03-29T13:13:35;25.10;31.30
70366;DHT22;57787;48.216;12.396;2024-03-29T13:16:01;24.80;30.30
70366;DHT22;57787;48.216;12.396;2024-03-29T13:18:27;24.70;30.20
70366;DHT22;57787;48.216;12.396;2024-03-29T13:20:52;24.60;31.40
70366;DHT22;57787;48.216;12.396;2024-03-29T13:23:18;24.60;31.90
70366;DHT22;57787;48.216;12.396;2024-03-29T13:25:44;24.50;32.30
70366;DHT22;57787;48.216;12.396;2024-03-29T13:28:10;24.40;31.20
70366;DHT22;57787;48.216;12.396;2024-03-29T13:30:36;24.50;33.00
70366;DHT22;57787;48.216;12.396;2024-03-29T13:33:08;24.50;31.70
70366;DHT22;57787;48.216;12.396;2024-03-29T13:35:36;24.40;32.10
70366;DHT22;57787;48.216;12.396;2024-03-29T13:38:01;24.40;32.60
70366;DHT22;57787;48.216;12.396;2024-03-29T13:40:28;24.60;31.50
70366;DHT22;57787;48.216;12.396;2024-03-29T13:42:54;24.70;31.80
70366;DHT22;57787;48.216;12.396;2024-03-29T13:45:20;24.80;30.70
70366;DHT22;57787;48.216;12.396;2024-03-29T13:47:48;24.50;29.80
70366;DHT22;57787;48.216;12.396;2024-03-29T13:50:15;24.30;30.50
70366;DHT22;57787;48.216;12.396;2024-03-29T13:52:41;24.30;30.10
70366;DHT22;57787;48.216;12.396;2024-03-29T13:55:07;24.40;29.80
70366;DHT22;57787;48.216;12.396;2024-03-29T13:57:33;24.60;30.70
70366;DHT22;57787;48.216;12.396;2024-03-29T13:59:58;24.90;30.30
70366;DHT22;57787;48.216;12.396;2024-03-29T14:02:25;24.90;29.30
70366;DHT22;57787;48.216;12.396;2024-03-29T14:04:54;24.90;29.00
70366;DHT22;57787;48.216;12.396;2024-03-29T14:07:20;24.80;28.70
70366;DHT22;57787;48.216;12.396;2024-03-29T14:09:46;24.50;28.70
70366;DHT22;57787;48.216;12.396;2024-03-29T14:12:13;24.60;29.50
70366;DHT22;57787;48.216;12.396;2024-03-29T14:14:40;24.80;30.00
70366;DHT22;57787;48.216;12.396;2024-03-29T14:17:09;25.00;29.50
70366;DHT22;57787;48.216;12.396;2024-03-29T14:19:35;25.10;29.50
70366;DHT22;57787;48.216;12.396;2024-03-29T14:22:03;25.10;28.80
70366;DHT22;57787;48.216;12.396;2024-03-29T14:24:32;25.00;28.50
70366;DHT22;57787;48.216;12.396;2024-03-29T14:27:02;25.00;29.00
70366;DHT22;57787;48.216;12.396;2024-03-29T14:29:31;25.00;28.50
70366;DHT22;57787;48.216;12.396;2024-03-29T14:31:57;24.80;28.60
70366;DHT22;57787;48.216;12.396;2024-03-29T14:34:24;24.40;29.00
70366;DHT22;57787;48.216;12.396;2024-03-29T14:36:54;24.20;29.70
70366;DHT22;57787;48.216;12.396;2024-03-29T14:39:20;24.10;30.40
70366;DHT22;57787;48.216;12.396;2024-03-29T14:41:47;24.00;30.30
70366;DHT22;57787;48.216;12.396;2024-03-29T14:44:14;23.80;30.40
70366;DHT22;57787;48.216;12.396;2024-03-29T14:46:39;23.80;30.10
70366;DHT22;57787;48.216;12.396;2024-03-29T14:49:05;23.80;30.10
70366;DHT22;57787;48.216;12.396;2024-03-29T14:51:33;23.70;30.60
70366;DHT22;57787;48.216;12.396;2024-03-29T14:53:59;23.60;30.30
70366;DHT22;57787;48.216;12.396;2024-03-29T14:56:25;23.50;29.90
70366;DHT22;57787;48.216;12.396;2024-03-29T14:58:51;23.50;30.50
70366;DHT22;57787;48.216;12.396;2024-03-29T15:01:17;23.60;30.00
70366;DHT22;57787;48.216;12.396;2024-03-29T15:03:43;23.70;30.50
70366;DHT22;57787;48.216;12.396;2024-03-29T15:06:08;23.90;30.00
70366;DHT22;57787;48.216;12.396;2024-03-29T15:08:38;24.00;30.60
70366;DHT22;57787;48.216;12.396;2024-03-29T15:11:04;24.20;30.30
70366;DHT22;57787;48.216;12.396;2024-03-29T15:13:30;24.30;29.60
70366;DHT22;57787;48.216;12.396;2024-03-29T15:15:56;24.20;29.00
70366;DHT22;57787;48.216;12.396;2024-03-29T15:18:23;24.00;28.70
70366;DHT22;57787;48.216;12.396;2024-03-29T15:21:01;23.80;28.10
70366;DHT22;57787;48.216;12.396;2024-03-29T15:23:27;23.70;29.90